sensor_id;sensor_type;location;lat;lon;timestamp;temperature;humidity
19152;DHT22;9708;53.114;9.388;2024-03-02T00:00:49;8.20;99.90
19152;DHT22;9708;53.114;9.388;2024-03-02T00:03:18;8.20;99.90
19152;DHT22;9708;53.114;9.388;2024-03-02T00:05:49;8.20;99.90
19152;DHT22;9708;53.114;9.388;2024-03-02T00:08:22;8.20;99.90
19152;DHT22;9708;53.114;9.388;2024-03-02T00:10:49;8.20;99.90
19152;DHT22;9708;53.114;9.388;2024-03-02T00:13:16;8.20;99.90
19152;DHT22;9708;53.114;9.388;2024-03-02T00:15:46;8.20;99.90
19152;DHT22;9708;53.114;9.388;2024-03-02T00:18:16;8.10;99.90
19152;DHT22;9708;53.114;9.388;2024-03-02T00:20:46;8.00;99.90
19152;DHT22;9708;53.114;9.388;2024-03-02T00:23:14;8.10;99.90
19152;DHT22;9708;53.114;9.388;2024-03-02T00:25:43;8.10;99.90
19152;DHT22;9708;53.114;9.388;2024-03-02T00:28:19;8.10;99.90
19152;DHT22;9708;53.114;9.388;2024-03-02T00:30:55;8.10;99.90
19152;DHT22;9708;53.114;9.388;2024-03-02T00:33:23;8.10;99.90
19152;DHT22;9708;53.114;9.388;2024-03-02T00:35:53;8.10;99.90
19152;DHT22;9708;53.114;9.388;2024-03-02T00:38:20;8.20;99.90
19152;DHT22;9708;53.114;9.388;2024-03-02T00:40:48;8.20;99.90
19152;DHT22;9708;53.114;9.388;2024-03-02T00:43:43;8.20;99.90
19152;DHT22;9708;53.114;9.388;2024-03-02T00:46:11;8.20;99.90
19152;DHT22;9708;53.114;9.388;2024-03-02T00:48:47;8.20;99.90
19152;DHT22;9708;53.114;9.388;2024-03-02T00:51:15;8.20;99.90
19152;DHT22;9708;53.114;9.388;2024-03-02T00:53:42;8.30;99.90
19152;DHT22;9708;53.114;9.388;2024-03-02T00:56:11;8.30;99.90
19152;DHT22;9708;53.114;9.388;2024-03-02T00:58:39;8.30;99.90
19152;DHT22;9708;53.114;9.388;2024-03-02T01:01:06;8.20;99.90
19152;DHT22;9708;53.114;9.388;2024-03-02T01:03:33;8.20;99.90
19152;DHT22;9708;53.114;9.388;2024-03-02T01:06:00;8.30;99.90
19152;DHT22;9708;53.114;9.388;2024-03-02T01:08:29;8.30;99.90
19152;DHT22;9708;53.114;9.388;2024-03-02T01:10:56;8.30;99.90
19152;DHT22;9708;53.114;9.388;2024-03-02T01:13:23;8.30;99.90
19152;DHT22;9708;53.114;9.388;2024-03-02T01:15:50;8.30;99.90
19152;DHT22;9708;53.114;9.388;2024-03-02T01:18:17;8.20;99.90
19152;DHT22;9708;53.114;9.388;2024-03-02T01:20:44;8.20;99.90
19152;DHT22;9708;53.114;9.388;2024-03-02T01:23:11;8.30;99.90
19152;DHT22;9708;53.114;9.388;2024-03-02T01:25:39;8.20;99.90
19152;DHT22;9708;53.114;9.388;2024-03-02T01:28:06;8.30;99.90
19152;DHT22;9708;53.114;9.388;2024-03-02T01:30:33;8.20;99.90
19152;DHT22;9708;53.114;9.388;2024-03-02T01:33:00;8.20;99.90
19152;DHT22;9708;53.114;9.388;2024-03-02T01:35:27;8.10;99.90
19152;DHT22;9708;53.114;9.388;2024-03-02T01:37:54;8.10;99.90
19152;DHT22;9708;53.114;9.388;2024-03-02T01:40:21;8.20;99.90
19152;DHT22;9708;53.114;9.388;2024-03-02T01:42:53;8.20;99.90
19152;DHT22;9708;53.114;9.388;2024-03-02T01:45:21;8.30;99.90
19152;DHT22;9708;53.114;9.388;2024-03-02T01:47:48;8.30;99.90
19152;DHT22;9708;53.114;9.388;2024-03-02T01:50:15;8.40;99.90
19152;DHT22;9708;53.114;9.388;2024-03-02T01:52:42;8.30;99.90
19152;DHT22;9708;53.114;9.388;2024-03-02T01:55:10;8.40;99.90
19152;DHT22;9708;53.114;9.388;2024-03-02T01:57:36;8.40;99.90
19152;DHT22;9708;53.114;9.388;2024-03-02T02:00:06;8.30;99.90
19152;DHT22;9708;53.114;9.388;2024-03-02T02:02:35;8.20;99.90
19152;DHT22;9708;53.114;9.388;2024-03-02T02:05:02;8.30;99.90
19152;DHT22;9708;53.114;9.388;2024-03-02T02:07:29;8.30;99.90
19152;DHT22;9708;53.114;9.388;2024-03-02T02:09:56;8.30;99.90
19152;DHT22;9708;53.114;9.388;2024-03-02T02:12:23;8.30;99.90
19152;DHT22;9708;53.114;9.388;2024-03-02T02:14:50;8.30;99.90
19152;DHT22;9708;53.114;9.388;2024-03-02T02:17:19;8.20;99.90
19152;DHT22;9708;53.114;9.388;2024-03-02T02:19:46;8.20;99.90
19152;DHT22;9708;53.114;9.388;2024-03-02T02:22:14;8.20;99.90
19152;DHT22;9708;53.114;9.388;2024-03-02T02:24:41;8.20;99.90
19152;DHT22;9708;53.114;9.388;2024-03-02T02:27:08;8.20;99.90
19152;DHT22;9708;53.114;9.388;2024-03-02T02:29:36;8.20;99.90
19152;DHT22;9708;53.114;9.388;2024-03-02T02:32:03;8.20;99.90
19152;DHT22;9708;53.114;9.388;2024-03-02T02:34:30;8.10;99.90
19152;DHT22;9708;53.114;9.388;2024-03-02T02:36:57;8.10;99.90
19152;DHT22;9708;53.114;9.388;2024-03-02T02:39:25;8.10;99.90
19152;DHT22;9708;53.114;9.388;2024-03-02T02:41:52;8.10;99.90
19152;DHT22;9708;53.114;9.388;2024-03-02T02:44:19;8.10;99.90
19152;DHT22;9708;53.114;9.388;2024-03-02T02:46:46;8.10;99.90
19152;DHT22;9708;53.114;9.388;2024-03-02T02:49:13;8.20;99.90
19152;DHT22;9708;53.114;9.388;2024-03-02T02:51:40;8.20;99.90
19152;DHT22;9708;53.114;9.388;2024-03-02T02:54:06;8.20;99.90
19152;DHT22;9708;53.114;9.388;2024-03-02T02:56:35;8.20;99.90
19152;DHT22;9708;53.114;9.388;2024-03-02T02:59:01;8.20;99.90
19152;DHT22;9708;53.114;9.388;2024-03-02T03:01:28;8.10;99.90
19152;DHT22;9708;53.114;9.388;2024-03-02T03:03:55;8.10;99.90
19152;DHT22;9708;53.114;9.388;2024-03-02T03:06:22;8.00;99.90
19152;DHT22;9708;53.114;9.388;2024-03-02T03:08:49;8.00;99.90
19152;DHT22;9708;53.114;9.388;2024-03-02T03:11:15;8.00;99.90
19152;DHT22;9708;53.114;9.388;2024-03-02T03:13:44;8.00;99.90
19152;DHT22;9708;53.114;9.388;2024-03-02T03:16:11;7.90;99.90
19152;DHT22;9708;53.114;9.388;2024-03-02T03:18:38;7.90;99.90
19152;DHT22;9708;53.114;9.388;2024-03-02T03:21:05;7.90;99.90
19152;DHT22;9708;53.114;9.388;2024-03-02T03:23:32;7.90;99.90
19152;DHT22;9708;53.114;9.388;2024-03-02T03:25:58;7.90;99.90
19152;DHT22;9708;53.114;9.388;2024-03-02T03:28:26;7.80;99.90
19152;DHT22;9708;53.114;9.388;2024-03-02T03:30:54;7.90;99.90
19152;DHT22;9708;53.114;9.388;2024-03-02T03:33:21;7.80;99.90
19152;DHT22;9708;53.114;9.388;2024-03-02T03:35:48;7.70;99.90
19152;DHT22;9708;53.114;9.388;2024-03-02T03:38:15;7.70;99.90
19152;DHT22;9708;53.114;9.388;2024-03-02T03:40:42;7.70;99.90
19152;DHT22;9708;53.114;9.388;2024-03-02T03:43:10;7.70;99.90
19152;DHT22;9708;53.114;9.388;2024-03-02T03:45:37;7.60;99.90
19152;DHT22;9708;53.114;9.388;2024-03-02T03:48:05;7.70;99.90
19152;DHT22;9708;53.114;9.388;2024-03-02T03:50:32;7.70;99.90
19152;DHT22;9708;53.114;9.388;2024-03-02T03:52:59;7.70;99.90
19152;DHT22;9708;53.114;9.388;2024-03-02T03:55:26;7.60;99.90
19152;DHT22;9708;53.114;9.388;2024-03-02T03:57:53;7.60;99.90
19152;DHT22;9708;53.114;9.388;2024-03-02T04:00:20;7.60;99.90
19152;DHT22;9708;53.114;9.388;2024-03-02T04:02:47;7.70;99.90
19152;DHT22;9708;53.114;9.388;2024-03-02T04:05:15;7.60;99.90
19152;DHT22;9708;53.114;9.388;2024-03-02T04:07:42;7.70;99.90
19152;DHT22;9708;53.114;9.388;2024-03-02T04:10:10;7.70;99.90
19152;DHT22;9708;53.114;9.388;2024-03-02T04:12:38;7.60;99.90
19152;DHT22;9708;53.114;9.388;2024-03-02T04:15:06;7.60;99.90
19152;DHT22;9708;53.114;9.388;2024-03-02T04:17:33;7.60;99.90
19152;DHT22;9708;53.114;9.388;2024-03-02T04:20:01;7.60;99.90
19152;DHT22;9708;53.114;9.388;2024-03-02T04:22:33;7.50;99.90
19152;DHT22;9708;53.114;9.388;2024-03-02T04:25:01;7.50;99.90
19152;DHT22;9708;53.114;9.388;2024-03-02T04:27:27;7.50;99.90
19152;DHT22;9708;53.114;9.388;2024-03-02T04:29:53;7.50;99.90
19152;DHT22;9708;53.114;9.388;2024-03-02T04:32:20;7.40;99.90
19152;DHT22;9708;53.114;9.388;2024-03-02T04:34:47;7.40;99.90
19152;DHT22;9708;53.114;9.388;2024-03-02T04:37:14;7.40;99.90
19152;DHT22;9708;53.114;9.388;2024-03-02T04:39:42;7.30;99.90
19152;DHT22;9708;53.114;9.388;2024-03-02T04:42:09;7.30;99.90
19152;DHT22;9708;53.114;9.388;2024-03-02T04:44:36;7.30;99.90
19152;DHT22;9708;53.114;9.388;2024-03-02T04:47:04;7.20;99.90
19152;DHT22;9708;53.114;9.388;2024-03-02T04:49:31;7.20;99.90
19152;DHT22;9708;53.114;9.388;2024-03-02T04:51:57;7.20;99.90
19152;DHT22;9708;53.114;9.388;2024-03-02T04:54:24;7.20;99.90
19152;DHT22;9708;53.114;9.388;2024-03-02T04:56:53;7.20;99.90
19152;DHT22;9708;53.114;9.388;2024-03-02T04:59:20;7.20;99.90
19152;DHT22;9708;53.114;9.388;2024-03-02T05:01:47;7.10;99.90
19152;DHT22;9708;53.114;9.388;2024-03-02T05:04:14;7.10;99.90
19152;DHT22;9708;53.114;9.388;2024-03-02T05:06:41;7.00;99.90
19152;DHT22;9708;53.114;9.388;2024-03-02T05:09:08;7.00;99.90
19152;DHT22;9708;53.114;9.388;2024-03-02T05:11:35;6.90;99.90
19152;DHT22;9708;53.114;9.388;2024-03-02T05:14:21;6.90;99.90
19152;DHT22;9708;53.114;9.388;2024-03-02T05:16:48;7.00;99.90
19152;DHT22;9708;53.114;9.388;2024-03-02T05:19:15;7.10;99.90
19152;DHT22;9708;53.114;9.388;2024-03-02T05:21:42;7.10;99.90
19152;DHT22;9708;53.114;9.388;2024-03-02T05:24:09;7.00;99.90
19152;DHT22;9708;53.114;9.388;2024-03-02T05:26:36;7.00;99.90
19152;DHT22;9708;53.114;9.388;2024-03-02T05:29:02;7.00;99.90
19152;DHT22;9708;53.114;9.388;2024-03-02T05:31:31;7.00;99.90
19152;DHT22;9708;53.114;9.388;2024-03-02T05:33:57;7.10;99.90
19152;DHT22;9708;53.114;9.388;2024-03-02T05:36:25;7.00;99.90
19152;DHT22;9708;53.114;9.388;2024-03-02T05:38:51;7.10;99.90
19152;DHT22;9708;53.114;9.388;2024-03-02T05:41:18;7.10;99.90
19152;DHT22;9708;53.114;9.388;2024-03-02T05:43:45;7.10;99.90
19152;DHT22;9708;53.114;9.388;2024-03-02T05:46:12;7.10;99.90
19152;DHT22;9708;53.114;9.388;2024-03-02T05:48:40;7.00;99.90
19152;DHT22;9708;53.114;9.388;2024-03-02T05:51:07;6.80;99.90
19152;DHT22;9708;53.114;9.388;2024-03-02T05:53:34;6.80;99.90
19152;DHT22;9708;53.114;9.388;2024-03-02T05:56:04;6.70;99.90
19152;DHT22;9708;53.114;9.388;2024-03-02T05:58:31;6.60;99.90
19152;DHT22;9708;53.114;9.388;2024-03-02T06:01:08;6.50;99.90
19152;DHT22;9708;53.114;9.388;2024-03-02T06:03:35;6.30;99.90
19152;DHT22;9708;53.114;9.388;2024-03-02T06:06:04;6.40;99.90
19152;DHT22;9708;53.114;9.388;2024-03-02T06:08:31;6.50;99.90
19152;DHT22;9708;53.114;9.388;2024-03-02T06:10:57;6.50;99.90
19152;DHT22;9708;53.114;9.388;2024-03-02T06:13:24;6.60;99.90
19152;DHT22;9708;53.114;9.388;2024-03-02T06:15:52;6.70;99.90
19152;DHT22;9708;53.114;9.388;2024-03-02T06:18:19;6.80;99.90
19152;DHT22;9708;53.114;9.388;2024-03-02T06:20:46;6.70;99.90
19152;DHT22;9708;53.114;9.388;2024-03-02T06:23:14;6.70;99.90
19152;DHT22;9708;53.114;9.388;2024-03-02T06:25:41;6.70;99.90
19152;DHT22;9708;53.114;9.388;2024-03-02T06:28:08;6.80;99.90
19152;DHT22;9708;53.114;9.388;2024-03-02T06:30:35;6.90;99.90
19152;DHT22;9708;53.114;9.388;2024-03-02T06:33:02;6.90;99.90
19152;DHT22;9708;53.114;9.388;2024-03-02T06:35:31;7.00;99.90
19152;DHT22;9708;53.114;9.388;2024-03-02T06:37:57;7.00;99.90
19152;DHT22;9708;53.114;9.388;2024-03-02T06:40:26;7.00;99.90
19152;DHT22;9708;53.114;9.388;2024-03-02T06:42:53;7.10;99.90
19152;DHT22;9708;53.114;9.388;2024-03-02T06:45:20;7.10;99.90
19152;DHT22;9708;53.114;9.388;2024-03-02T06:47:47;7.20;99.90
19152;DHT22;9708;53.114;9.388;2024-03-02T06:50:14;7.30;99.90
19152;DHT22;9708;53.114;9.388;2024-03-02T06:52:41;7.40;99.90
19152;DHT22;9708;53.114;9.388;2024-03-02T06:55:09;7.50;99.90
19152;DHT22;9708;53.114;9.388;2024-03-02T06:57:37;7.60;99.90
19152;DHT22;9708;53.114;9.388;2024-03-02T07:00:05;7.60;99.90
19152;DHT22;9708;53.114;9.388;2024-03-02T07:02:34;7.60;99.90
19152;DHT22;9708;53.114;9.388;2024-03-02T07:05:01;7.60;99.90
19152;DHT22;9708;53.114;9.388;2024-03-02T07:07:29;7.70;99.90
19152;DHT22;9708;53.114;9.388;2024-03-02T07:09:56;7.70;99.90
19152;DHT22;9708;53.114;9.388;2024-03-02T07:12:23;7.80;99.90
19152;DHT22;9708;53.114;9.388;2024-03-02T07:14:51;7.80;99.90
19152;DHT22;9708;53.114;9.388;2024-03-02T07:17:33;8.00;99.90
19152;DHT22;9708;53.114;9.388;2024-03-02T07:20:01;8.00;99.90
19152;DHT22;9708;53.114;9.388;2024-03-02T07:22:29;8.00;99.90
19152;DHT22;9708;53.114;9.388;2024-03-02T07:24:56;8.20;99.90
19152;DHT22;9708;53.114;9.388;2024-03-02T07:27:23;8.10;99.90
19152;DHT22;9708;53.114;9.388;2024-03-02T07:29:51;8.20;99.90
19152;DHT22;9708;53.114;9.388;2024-03-02T07:32:18;8.30;99.90
19152;DHT22;9708;53.114;9.388;2024-03-02T07:34:45;8.40;99.90
19152;DHT22;9708;53.114;9.388;2024-03-02T07:37:11;8.50;99.90
19152;DHT22;9708;53.114;9.388;2024-03-02T07:39:38;8.50;99.90
19152;DHT22;9708;53.114;9.388;2024-03-02T07:42:05;8.40;99.90
19152;DHT22;9708;53.114;9.388;2024-03-02T07:44:32;8.50;99.90
19152;DHT22;9708;53.114;9.388;2024-03-02T07:47:01;8.70;99.90
19152;DHT22;9708;53.114;9.388;2024-03-02T07:49:28;8.80;99.90
19152;DHT22;9708;53.114;9.388;2024-03-02T07:51:55;9.00;99.90
19152;DHT22;9708;53.114;9.388;2024-03-02T07:54:22;9.30;99.90
19152;DHT22;9708;53.114;9.388;2024-03-02T07:56:48;9.40;99.90
19152;DHT22;9708;53.114;9.388;2024-03-02T07:59:15;9.50;99.90
19152;DHT22;9708;53.114;9.388;2024-03-02T08:01:42;9.60;99.90
19152;DHT22;9708;53.114;9.388;2024-03-02T08:04:11;10.00;99.90
19152;DHT22;9708;53.114;9.388;2024-03-02T08:06:37;9.90;99.90
19152;DHT22;9708;53.114;9.388;2024-03-02T08:09:04;10.40;99.90
19152;DHT22;9708;53.114;9.388;2024-03-02T08:11:35;10.80;99.90
19152;DHT22;9708;53.114;9.388;2024-03-02T08:14:02;10.90;99.90
19152;DHT22;9708;53.114;9.388;2024-03-02T08:16:30;11.50;99.90
19152;DHT22;9708;53.114;9.388;2024-03-02T08:18:57;11.50;99.90
19152;DHT22;9708;53.114;9.388;2024-03-02T08:21:26;11.90;99.90
19152;DHT22;9708;53.114;9.388;2024-03-02T08:23:56;11.60;99.90
19152;DHT22;9708;53.114;9.388;2024-03-02T08:26:23;11.60;99.90
19152;DHT22;9708;53.114;9.388;2024-03-02T08:28:50;11.50;99.90
19152;DHT22;9708;53.114;9.388;2024-03-02T08:31:17;11.40;99.90
19152;DHT22;9708;53.114;9.388;2024-03-02T08:33:43;11.20;99.90
19152;DHT22;9708;53.114;9.388;2024-03-02T08:36:10;11.40;99.90
19152;DHT22;9708;53.114;9.388;2024-03-02T08:38:39;11.50;99.90
19152;DHT22;9708;53.114;9.388;2024-03-02T08:41:07;11.30;99.90
19152;DHT22;9708;53.114;9.388;2024-03-02T08:43:34;11.30;99.90
19152;DHT22;9708;53.114;9.388;2024-03-02T08:46:01;11.20;99.90
19152;DHT22;9708;53.114;9.388;2024-03-02T08:48:28;11.10;99.90
19152;DHT22;9708;53.114;9.388;2024-03-02T08:50:55;11.20;99.90
19152;DHT22;9708;53.114;9.388;2024-03-02T08:53:21;11.40;99.90
19152;DHT22;9708;53.114;9.388;2024-03-02T08:55:50;11.50;99.90
19152;DHT22;9708;53.114;9.388;2024-03-02T08:58:17;11.50;99.90
19152;DHT22;9708;53.114;9.388;2024-03-02T09:00:43;11.70;99.90
19152;DHT22;9708;53.114;9.388;2024-03-02T09:03:10;11.80;99.90
19152;DHT22;9708;53.114;9.388;2024-03-02T09:05:38;11.80;99.90
19152;DHT22;9708;53.114;9.388;2024-03-02T09:08:05;11.90;99.90
19152;DHT22;9708;53.114;9.388;2024-03-02T09:10:33;11.80;99.90
19152;DHT22;9708;53.114;9.388;2024-03-02T09:13:01;12.00;99.90
19152;DHT22;9708;53.114;9.388;2024-03-02T09:15:28;11.90;99.90
19152;DHT22;9708;53.114;9.388;2024-03-02T09:17:55;11.80;99.90
19152;DHT22;9708;53.114;9.388;2024-03-02T09:20:22;11.70;99.90
19152;DHT22;9708;53.114;9.388;2024-03-02T09:22:49;11.70;99.90
19152;DHT22;9708;53.114;9.388;2024-03-02T09:25:16;11.70;99.90
19152;DHT22;9708;53.114;9.388;2024-03-02T09:27:43;11.60;99.90
19152;DHT22;9708;53.114;9.388;2024-03-02T09:30:12;11.40;99.90
19152;DHT22;9708;53.114;9.388;2024-03-02T09:32:40;11.40;99.90
19152;DHT22;9708;53.114;9.388;2024-03-02T09:35:08;11.30;99.90
19152;DHT22;9708;53.114;9.388;2024-03-02T09:37:35;11.40;99.90
19152;DHT22;9708;53.114;9.388;2024-03-02T09:40:02;11.50;99.90
19152;DHT22;9708;53.114;9.388;2024-03-02T09:42:29;11.30;99.90
19152;DHT22;9708;53.114;9.388;2024-03-02T09:44:57;11.40;99.90
19152;DHT22;9708;53.114;9.388;2024-03-02T09:47:26;11.50;99.90
19152;DHT22;9708;53.114;9.388;2024-03-02T09:49:53;11.50;99.90
19152;DHT22;9708;53.114;9.388;2024-03-02T09:52:21;11.50;99.90
19152;DHT22;9708;53.114;9.388;2024-03-02T09:54:48;11.40;99.90
19152;DHT22;9708;53.114;9.388;2024-03-02T09:57:16;11.50;99.90
19152;DHT22;9708;53.114;9.388;2024-03-02T09:59:43;11.40;99.90
19152;DHT22;9708;53.114;9.388;2024-03-02T10:02:11;11.50;99.90
19152;DHT22;9708;53.114;9.388;2024-03-02T10:04:39;11.80;99.90
19152;DHT22;9708;53.114;9.388;2024-03-02T10:07:13;11.70;99.90
19152;DHT22;9708;53.114;9.388;2024-03-02T10:09:40;11.60;99.90
19152;DHT22;9708;53.114;9.388;2024-03-02T10:12:08;11.60;99.90
19152;DHT22;9708;53.114;9.388;2024-03-02T10:14:37;11.90;99.90
19152;DHT22;9708;53.114;9.388;2024-03-02T10:17:06;11.80;99.90
19152;DHT22;9708;53.114;9.388;2024-03-02T10:19:33;11.80;99.90
19152;DHT22;9708;53.114;9.388;2024-03-02T10:22:04;12.00;99.90
19152;DHT22;9708;53.114;9.388;2024-03-02T10:24:36;12.10;99.90
19152;DHT22;9708;53.114;9.388;2024-03-02T10:27:07;12.30;99.90
19152;DHT22;9708;53.114;9.388;2024-03-02T10:29:39;12.20;99.90
19152;DHT22;9708;53.114;9.388;2024-03-02T10:32:08;12.10;99.90
19152;DHT22;9708;53.114;9.388;2024-03-02T10:34:36;12.40;99.90
19152;DHT22;9708;53.114;9.388;2024-03-02T10:37:05;12.40;99.90
19152;DHT22;9708;53.114;9.388;2024-03-02T10:39:34;12.80;99.90
19152;DHT22;9708;53.114;9.388;2024-03-02T10:42:03;13.10;99.90
19152;DHT22;9708;53.114;9.388;2024-03-02T10:44:30;13.30;99.90
19152;DHT22;9708;53.114;9.388;2024-03-02T10:47:00;13.50;99.90
19152;DHT22;9708;53.114;9.388;2024-03-02T10:49:29;13.40;99.90
19152;DHT22;9708;53.114;9.388;2024-03-02T10:51:56;13.30;99.90
19152;DHT22;9708;53.114;9.388;2024-03-02T10:54:24;13.50;99.90
19152;DHT22;9708;53.114;9.388;2024-03-02T10:56:56;13.60;99.90
19152;DHT22;9708;53.114;9.388;2024-03-02T10:59:27;13.50;99.90
19152;DHT22;9708;53.114;9.388;2024-03-02T11:01:56;13.40;99.90
19152;DHT22;9708;53.114;9.388;2024-03-02T11:04:25;13.10;99.90
19152;DHT22;9708;53.114;9.388;2024-03-02T11:06:54;13.00;99.90
19152;DHT22;9708;53.114;9.388;2024-03-02T11:09:26;13.30;99.90
19152;DHT22;9708;53.114;9.388;2024-03-02T11:11:59;13.50;99.90
19152;DHT22;9708;53.114;9.388;2024-03-02T11:14:30;13.60;99.90
19152;DHT22;9708;53.114;9.388;2024-03-02T11:16:58;13.70;99.90
19152;DHT22;9708;53.114;9.388;2024-03-02T11:19:24;13.60;99.90
19152;DHT22;9708;53.114;9.388;2024-03-02T11:21:52;13.60;99.90
19152;DHT22;9708;53.114;9.388;2024-03-02T11:24:30;13.80;99.90
19152;DHT22;9708;53.114;9.388;2024-03-02T11:27:01;13.80;99.90
19152;DHT22;9708;53.114;9.388;2024-03-02T11:29:44;13.50;99.90
19152;DHT22;9708;53.114;9.388;2024-03-02T11:32:16;13.50;99.90
19152;DHT22;9708;53.114;9.388;2024-03-02T11:34:44;13.70;99.90
19152;DHT22;9708;53.114;9.388;2024-03-02T11:37:12;13.80;99.90
19152;DHT22;9708;53.114;9.388;2024-03-02T11:39:42;14.10;99.90
19152;DHT22;9708;53.114;9.388;2024-03-02T11:42:11;14.30;99.90
19152;DHT22;9708;53.114;9.388;2024-03-02T11:44:41;14.50;99.90
19152;DHT22;9708;53.114;9.388;2024-03-02T11:47:10;14.20;99.90
19152;DHT22;9708;53.114;9.388;2024-03-02T11:49:40;14.10;99.90
19152;DHT22;9708;53.114;9.388;2024-03-02T11:52:09;14.00;99.90
19152;DHT22;9708;53.114;9.388;2024-03-02T11:54:37;14.10;99.90
19152;DHT22;9708;53.114;9.388;2024-03-02T11:57:07;14.00;99.90
19152;DHT22;9708;53.114;9.388;2024-03-02T11:59:35;14.20;99.90
19152;DHT22;9708;53.114;9.388;2024-03-02T12:02:02;14.60;99.90
19152;DHT22;9708;53.114;9.388;2024-03-02T12:04:29;15.40;99.90
19152;DHT22;9708;53.114;9.388;2024-03-02T12:06:59;15.60;99.90
19152;DHT22;9708;53.114;9.388;2024-03-02T12:09:27;15.70;99.90
19152;DHT22;9708;53.114;9.388;2024-03-02T12:12:04;15.40;99.90
19152;DHT22;9708;53.114;9.388;2024-03-02T12:14:34;15.70;99.90
19152;DHT22;9708;53.114;9.388;2024-03-02T12:17:01;15.80;99.90
19152;DHT22;9708;53.114;9.388;2024-03-02T12:19:28;15.90;99.90
19152;DHT22;9708;53.114;9.388;2024-03-02T12:21:56;16.00;99.90
19152;DHT22;9708;53.114;9.388;2024-03-02T12:24:23;16.20;99.90
19152;DHT22;9708;53.114;9.388;2024-03-02T12:26:51;16.30;99.90
19152;DHT22;9708;53.114;9.388;2024-03-02T12:29:19;16.70;99.90
19152;DHT22;9708;53.114;9.388;2024-03-02T12:31:49;16.40;99.90
19152;DHT22;9708;53.114;9.388;2024-03-02T12:34:18;17.10;99.90
19152;DHT22;9708;53.114;9.388;2024-03-02T12:36:45;17.20;99.90
19152;DHT22;9708;53.114;9.388;2024-03-02T12:39:15;17.00;99.90
19152;DHT22;9708;53.114;9.388;2024-03-02T12:41:42;17.20;99.90
19152;DHT22;9708;53.114;9.388;2024-03-02T12:44:09;17.30;99.90
19152;DHT22;9708;53.114;9.388;2024-03-02T12:46:36;17.30;99.90
19152;DHT22;9708;53.114;9.388;2024-03-02T12:49:08;17.70;99.90
19152;DHT22;9708;53.114;9.388;2024-03-02T12:51:36;17.80;99.90
19152;DHT22;9708;53.114;9.388;2024-03-02T12:54:03;17.50;99.90
19152;DHT22;9708;53.114;9.388;2024-03-02T12:56:31;17.40;99.90
19152;DHT22;9708;53.114;9.388;2024-03-02T12:58:59;17.20;99.90
19152;DHT22;9708;53.114;9.388;2024-03-02T13:01:26;17.10;99.90
19152;DHT22;9708;53.114;9.388;2024-03-02T13:03:53;17.50;99.90
19152;DHT22;9708;53.114;9.388;2024-03-02T13:06:22;17.20;99.90
19152;DHT22;9708;53.114;9.388;2024-03-02T13:08:50;17.50;99.90
19152;DHT22;9708;53.114;9.388;2024-03-02T13:11:17;17.50;99.90
19152;DHT22;9708;53.114;9.388;2024-03-02T13:13:43;17.20;99.90
19152;DHT22;9708;53.114;9.388;2024-03-02T13:16:11;16.80;99.90
19152;DHT22;9708;53.114;9.388;2024-03-02T13:18:38;16.50;99.90
19152;DHT22;9708;53.114;9.388;2024-03-02T13:21:06;16.50;99.90
19152;DHT22;9708;53.114;9.388;2024-03-02T13:23:34;16.60;99.90
19152;DHT22;9708;53.114;9.388;2024-03-02T13:26:01;16.70;99.90
19152;DHT22;9708;53.114;9.388;2024-03-02T13:28:28;16.60;99.90
19152;DHT22;9708;53.114;9.388;2024-03-02T13:30:55;16.50;99.90
19152;DHT22;9708;53.114;9.388;2024-03-02T13:33:22;16.40;99.90
19152;DHT22;9708;53.114;9.388;2024-03-02T13:35:49;16.20;99.90
19152;DHT22;9708;53.114;9.388;2024-03-02T13:38:17;16.00;99.90
19152;DHT22;9708;53.114;9.388;2024-03-02T13:40:45;16.00;99.90
19152;DHT22;9708;53.114;9.388;2024-03-02T13:43:12;16.10;99.90
19152;DHT22;9708;53.114;9.388;2024-03-02T13:45:39;15.80;99.90
19152;DHT22;9708;53.114;9.388;2024-03-02T13:48:06;15.90;99.90
19152;DHT22;9708;53.114;9.388;2024-03-02T13:50:33;16.20;99.90
19152;DHT22;9708;53.114;9.388;2024-03-02T13:53:00;16.20;99.90
19152;DHT22;9708;53.114;9.388;2024-03-02T13:55:28;16.20;99.90
19152;DHT22;9708;53.114;9.388;2024-03-02T13:57:56;15.80;99.90
19152;DHT22;9708;53.114;9.388;2024-03-02T14:00:23;15.80;99.90
19152;DHT22;9708;53.114;9.388;2024-03-02T14:02:51;16.00;99.90
19152;DHT22;9708;53.114;9.388;2024-03-02T14:05:17;15.80;99.90
19152;DHT22;9708;53.114;9.388;2024-03-02T14:07:44;16.10;99.90
19152;DHT22;9708;53.114;9.388;2024-03-02T14:10:11;16.20;99.90
19152;DHT22;9708;53.114;9.388;2024-03-02T14:12:40;16.40;99.90
19152;DHT22;9708;53.114;9.388;2024-03-02T14:15:09;16.10;99.90
19152;DHT22;9708;53.114;9.388;2024-03-02T14:17:36;16.20;99.90
19152;DHT22;9708;53.114;9.388;2024-03-02T14:20:03;16.10;99.90
19152;DHT22;9708;53.114;9.388;2024-03-02T14:22:31;15.90;99.90
19152;DHT22;9708;53.114;9.388;2024-03-02T14:24:59;16.10;99.90
19152;DHT22;9708;53.114;9.388;2024-03-02T14:27:26;16.10;99.90
19152;DHT22;9708;53.114;9.388;2024-03-02T14:29:53;16.10;99.90
19152;DHT22;9708;53.114;9.388;2024-03-02T14:32:21;16.00;99.90
19152;DHT22;9708;53.114;9.388;2024-03-02T14:34:48;16.10;99.90
19152;DHT22;9708;53.114;9.388;2024-03-02T14:37:15;15.80;99.90
19152;DHT22;9708;53.114;9.388;2024-03-02T14:39:42;16.00;99.90
19152;DHT22;9708;53.114;9.388;2024-03-02T14:42:08;16.00;99.90
19152;DHT22;9708;53.114;9.388;2024-03-02T14:44:35;16.00;99.90
19152;DHT22;9708;53.114;9.388;2024-03-02T14:47:02;15.90;99.90
19152;DHT22;9708;53.114;9.388;2024-03-02T14:49:31;16.00;99.90
19152;DHT22;9708;53.114;9.388;2024-03-02T14:51:59;15.90;99.90
19152;DHT22;9708;53.114;9.388;2024-03-02T14:54:26;15.60;99.90
19152;DHT22;9708;53.114;9.388;2024-03-02T14:56:52;15.40;99.90
19152;DHT22;9708;53.114;9.388;2024-03-02T14:59:19;15.20;99.90
19152;DHT22;9708;53.114;9.388;2024-03-02T15:01:46;15.20;99.90
19152;DHT22;9708;53.114;9.388;2024-03-02T15:04:14;15.00;99.90
19152;DHT22;9708;53.114;9.388;2024-03-02T15:06:43;15.10;99.90
19152;DHT22;9708;53.114;9.388;2024-03-02T15:09:10;15.10;99.90
19152;DHT22;9708;53.114;9.388;2024-03-02T15:11:37;15.10;99.90
19152;DHT22;9708;53.114;9.388;2024-03-02T15:14:05;15.10;99.90
19152;DHT22;9708;53.114;9.388;2024-03-02T15:16:32;15.10;99.90
19152;DHT22;9708;53.114;9.388;2024-03-02T15:18:59;15.00;99.90
19152;DHT22;9708;53.114;9.388;2024-03-02T15:21:25;15.10;99.90
19152;DHT22;9708;53.114;9.388;2024-03-02T15:23:54;15.20;99.90
19152;DHT22;9708;53.114;9.388;2024-03-02T15:26:21;15.20;99.90
19152;DHT22;9708;53.114;9.388;2024-03-02T15:28:47;15.10;99.90
19152;DHT22;9708;53.114;9.388;2024-03-02T15:31:14;15.00;99.90
19152;DHT22;9708;53.114;9.388;2024-03-02T15:33:43;14.80;99.90
19152;DHT22;9708;53.114;9.388;2024-03-02T15:36:09;14.80;99.90
19152;DHT22;9708;53.114;9.388;2024-03-02T15:38:36;14.80;99.90
19152;DHT22;9708;53.114;9.388;2024-03-02T15:41:05;14.80;99.90
19152;DHT22;9708;53.114;9.388;2024-03-02T15:43:32;14.90;99.90
19152;DHT22;9708;53.114;9.388;2024-03-02T15:46:01;14.70;99.90
19152;DHT22;9708;53.114;9.388;2024-03-02T15:48:28;14.70;99.90
19152;DHT22;9708;53.114;9.388;2024-03-02T15:50:55;14.80;99.90
19152;DHT22;9708;53.114;9.388;2024-03-02T15:53:23;14.70;99.90
19152;DHT22;9708;53.114;9.388;2024-03-02T15:55:50;14.70;99.90
19152;DHT22;9708;53.114;9.388;2024-03-02T15:58:18;14.50;99.90